createdAt,value
2022-08-25T00:01:35.894Z,26.15
2022-08-25T00:03:42.557Z,26.15
2022-08-25T00:05:50.809Z,26.14
2022-08-25T00:07:55.485Z,26.14
2022-08-25T00:10:00.129Z,26.15
2022-08-25T00:12:04.736Z,26.14
2022-08-25T00:14:09.252Z,26.14
2022-08-25T00:16:13.961Z,26.14
2022-08-25T00:18:19.984Z,26.13
2022-08-25T00:20:24.750Z,26.12
2022-08-25T00:22:29.371Z,26.13
2022-08-25T00:24:33.890Z,26.11
2022-08-25T00:26:38.445Z,26.12
2022-08-25T00:28:43.030Z,26.12
2022-08-25T00:30:47.709Z,26.12
2022-08-25T00:32:55.020Z,26.12
2022-08-25T00:35:01.915Z,26.13
2022-08-25T00:37:06.539Z,26.13
2022-08-25T00:39:11.254Z,26.14
2022-08-25T00:41:18.540Z,26.14
2022-08-25T00:43:23.062Z,26.13
2022-08-25T00:45:27.578Z,26.12
2022-08-25T00:47:32.195Z,26.11
2022-08-25T00:49:36.678Z,26.13
2022-08-25T00:51:41.234Z,26.13
2022-08-25T00:53:47.089Z,26.12
2022-08-25T00:55:51.603Z,26.11
2022-08-25T00:57:56.222Z,26.12
2022-08-25T01:00:02.431Z,26.12
2022-08-25T01:02:07.207Z,26.14
2022-08-25T01:04:17.864Z,26.13
2022-08-25T01:06:22.386Z,26.13
2022-08-25T01:08:26.831Z,26.14
2022-08-25T01:10:35.724Z,26.12
2022-08-25T01:12:40.349Z,26.13
2022-08-25T01:14:45.066Z,26.14
2022-08-25T01:16:51.021Z,26.14
2022-08-25T01:18:58.414Z,26.16
2022-08-25T01:21:03.029Z,26.14
2022-08-25T01:23:07.552Z,26.14
2022-08-25T01:25:12.168Z,26.16
2022-08-25T01:27:16.686Z,26.15
2022-08-25T01:29:21.206Z,26.15
2022-08-25T01:31:25.914Z,26.14
2022-08-25T01:33:30.651Z,26.11
2022-08-25T01:35:35.893Z,26.09
2022-08-25T01:37:40.410Z,26.06
2022-08-25T01:39:44.966Z,26.06
2022-08-25T01:41:50.513Z,26.06
2022-08-25T01:43:56.141Z,26.06
2022-08-25T01:46:00.773Z,26.04
2022-08-25T01:48:05.755Z,26.05
2022-08-25T01:50:10.592Z,26.06
2022-08-25T01:52:15.220Z,26.06
2022-08-25T01:54:19.832Z,26.05
2022-08-25T01:56:24.358Z,26.04
2022-08-25T01:58:28.978Z,26.03
2022-08-25T02:00:33.598Z,26.03
2022-08-25T02:02:38.192Z,26.01
2022-08-25T02:04:47.648Z,26.03
2022-08-25T02:06:54.427Z,26.02
2022-08-25T02:08:58.939Z,26.01
2022-08-25T02:11:03.565Z,26
2022-08-25T02:13:08.321Z,26
2022-08-25T02:15:13.021Z,25.99
2022-08-25T02:17:17.633Z,25.98
2022-08-25T02:19:22.256Z,25.97
2022-08-25T02:21:26.875Z,25.98
2022-08-25T02:23:31.499Z,25.96
2022-08-25T02:25:36.028Z,25.97
2022-08-25T02:27:40.733Z,25.95
2022-08-25T02:29:45.250Z,25.94
2022-08-25T02:31:49.773Z,25.95
2022-08-25T02:33:54.297Z,25.94
2022-08-25T02:35:59.116Z,25.94
2022-08-25T02:38:03.881Z,25.93
2022-08-25T02:40:09.007Z,25.93
2022-08-25T02:42:13.903Z,25.92
2022-08-25T02:44:18.419Z,25.91
2022-08-25T02:46:23.073Z,25.91
2022-08-25T02:48:27.971Z,25.9
2022-08-25T02:50:32.498Z,25.88
2022-08-25T02:52:37.037Z,25.89
2022-08-25T02:54:41.737Z,25.88
2022-08-25T02:56:46.253Z,25.88
2022-08-25T02:58:50.901Z,25.86
2022-08-25T03:00:55.633Z,25.88
2022-08-25T03:03:01.142Z,25.86
2022-08-25T03:05:05.740Z,25.85
2022-08-25T03:07:10.485Z,25.85
2022-08-25T03:09:20.737Z,25.86
2022-08-25T03:11:25.257Z,25.85
2022-08-25T03:13:29.778Z,25.83
2022-08-25T03:15:34.393Z,25.83
2022-08-25T03:17:39.530Z,25.82
2022-08-25T03:19:49.575Z,25.82
2022-08-25T03:21:54.198Z,25.82
2022-08-25T03:23:58.817Z,25.82
2022-08-25T03:26:03.337Z,25.83
2022-08-25T03:28:07.854Z,25.82
2022-08-25T03:30:12.475Z,25.82
2022-08-25T03:32:16.995Z,25.81
2022-08-25T03:34:21.621Z,25.82
2022-08-25T03:36:26.237Z,25.82
2022-08-25T03:38:30.859Z,25.82
2022-08-25T03:40:35.373Z,25.82
2022-08-25T03:42:43.327Z,25.83
2022-08-25T03:44:49.333Z,25.82
2022-08-25T03:46:53.949Z,25.82
2022-08-25T03:48:58.467Z,25.82
2022-08-25T03:51:03.090Z,25.82
2022-08-25T03:53:07.714Z,25.83
2022-08-25T03:55:16.331Z,25.83
2022-08-25T03:57:20.953Z,25.82
2022-08-25T03:59:25.567Z,25.82
2022-08-25T04:01:30.273Z,25.82
2022-08-25T04:03:35.025Z,25.82
2022-08-25T04:05:41.171Z,25.83
2022-08-25T04:07:45.691Z,25.83
2022-08-25T04:09:50.315Z,25.83
2022-08-25T04:11:54.936Z,25.82
2022-08-25T04:13:59.555Z,25.83
2022-08-25T04:16:04.310Z,25.82
2022-08-25T04:18:09.206Z,25.81
2022-08-25T04:20:14.206Z,25.81
2022-08-25T04:22:18.960Z,25.81
2022-08-25T04:24:23.583Z,25.8
2022-08-25T04:26:28.198Z,25.8
2022-08-25T04:28:32.822Z,25.79
2022-08-25T04:30:37.283Z,25.78
2022-08-25T04:32:43.295Z,25.79
2022-08-25T04:34:47.917Z,25.78
2022-08-25T04:36:52.849Z,25.78
2022-08-25T04:38:57.571Z,25.78
2022-08-25T04:41:02.087Z,25.78
2022-08-25T04:43:06.709Z,25.78
2022-08-25T04:45:11.343Z,25.78
2022-08-25T04:47:15.953Z,25.77
2022-08-25T04:49:20.680Z,25.76
2022-08-25T04:51:25.293Z,25.78
2022-08-25T04:53:29.921Z,25.77
2022-08-25T04:55:34.433Z,25.77
2022-08-25T04:57:38.926Z,25.77
2022-08-25T04:59:43.579Z,25.78
2022-08-25T05:01:49.691Z,25.79
2022-08-25T05:03:56.955Z,25.78
2022-08-25T05:06:01.638Z,25.78
2022-08-25T05:08:06.287Z,25.77
2022-08-25T05:10:11.050Z,25.79
2022-08-25T05:12:17.141Z,25.8
2022-08-25T05:14:21.761Z,25.81
2022-08-25T05:16:31.932Z,25.82
2022-08-25T05:18:36.841Z,25.83
2022-08-25T05:20:41.459Z,25.84
2022-08-25T05:22:46.076Z,25.84
2022-08-25T05:24:50.700Z,25.84
2022-08-25T05:26:55.220Z,25.83
2022-08-25T05:28:59.738Z,25.83
2022-08-25T05:31:04.410Z,25.82
2022-08-25T05:33:11.442Z,25.82
2022-08-25T05:35:15.959Z,25.85
2022-08-25T05:37:20.442Z,25.85
2022-08-25T05:39:26.808Z,25.84
2022-08-25T05:41:31.562Z,25.84
2022-08-25T05:43:36.179Z,25.84
2022-08-25T05:45:40.681Z,25.83
2022-08-25T05:47:45.429Z,25.83
2022-08-25T05:49:50.047Z,25.83
2022-08-25T05:51:54.567Z,25.82
2022-08-25T05:53:59.109Z,25.79
2022-08-25T05:56:03.703Z,25.77
2022-08-25T05:58:08.328Z,25.78
2022-08-25T06:00:19.197Z,25.77
2022-08-25T06:02:23.711Z,25.75
2022-08-25T06:04:28.231Z,25.73
2022-08-25T06:06:32.856Z,25.73
2022-08-25T06:08:37.473Z,25.7
2022-08-25T06:10:44.759Z,25.7
2022-08-25T06:12:49.275Z,25.72
2022-08-25T06:14:55.435Z,25.7
2022-08-25T06:17:00.056Z,25.68
2022-08-25T06:19:04.675Z,25.68
2022-08-25T06:21:09.195Z,25.68
2022-08-25T06:23:13.713Z,25.7
2022-08-25T06:25:18.334Z,25.7
2022-08-25T06:27:22.958Z,25.74
2022-08-25T06:29:27.478Z,25.76
2022-08-25T06:31:32.141Z,25.77
2022-08-25T06:33:36.920Z,25.78
2022-08-25T06:35:41.436Z,25.78
2022-08-25T06:37:45.964Z,25.76
2022-08-25T06:39:50.709Z,25.78
2022-08-25T06:41:55.512Z,25.78
2022-08-25T06:44:05.348Z,25.83
2022-08-25T06:46:10.178Z,25.85
2022-08-25T06:48:14.813Z,25.85
2022-08-25T06:50:19.419Z,25.87
2022-08-25T06:52:27.907Z,25.88
2022-08-25T06:54:34.189Z,25.89
2022-08-25T06:56:38.817Z,25.88
2022-08-25T06:58:43.443Z,25.89
2022-08-25T07:00:48.083Z,25.89
2022-08-25T07:02:52.817Z,25.89
2022-08-25T07:04:58.123Z,25.89
2022-08-25T07:07:02.735Z,25.89
2022-08-25T07:09:07.259Z,25.9
2022-08-25T07:11:16.025Z,25.9
2022-08-25T07:13:21.308Z,25.9
2022-08-25T07:15:25.825Z,25.92
2022-08-25T07:17:30.347Z,25.91
2022-08-25T07:19:34.972Z,25.92
2022-08-25T07:21:39.591Z,25.89
2022-08-25T07:23:44.237Z,25.88
2022-08-25T07:25:48.676Z,25.88
2022-08-25T07:27:57.023Z,25.91
2022-08-25T07:30:04.339Z,25.93
2022-08-25T07:32:09.028Z,25.96
2022-08-25T07:34:16.326Z,25.99
2022-08-25T07:36:21.153Z,26.01
2022-08-25T07:38:27.108Z,26.03
2022-08-25T07:40:31.786Z,26.02
2022-08-25T07:42:37.635Z,26.02
2022-08-25T07:44:43.427Z,26
2022-08-25T07:46:48.251Z,26.01
2022-08-25T07:48:56.255Z,25.98
2022-08-25T07:51:03.331Z,25.98
2022-08-25T07:53:12.166Z,25.99
2022-08-25T07:55:18.099Z,26.02
2022-08-25T07:57:22.725Z,26.02
2022-08-25T07:59:27.348Z,26.04
2022-08-25T08:01:32.027Z,26.05
2022-08-25T08:03:50.208Z,26.03
2022-08-25T08:05:55.953Z,25.99
2022-08-25T08:08:00.594Z,25.96
2022-08-25T08:10:33.135Z,25.96
2022-08-25T08:13:07.957Z,25.95
2022-08-25T08:15:13.333Z,25.93
2022-08-25T08:17:17.944Z,25.93
2022-08-25T08:19:23.487Z,25.94
2022-08-25T08:21:28.618Z,25.92
2022-08-25T08:23:34.575Z,25.92
2022-08-25T08:25:39.193Z,25.91
2022-08-25T08:27:43.817Z,25.91
2022-08-25T08:29:48.547Z,25.9
2022-08-25T08:31:53.222Z,25.91
2022-08-25T08:33:59.113Z,25.9
2022-08-25T08:36:05.005Z,25.9
2022-08-25T08:38:15.133Z,25.9
2022-08-25T08:40:30.674Z,25.93
2022-08-25T08:42:36.240Z,25.93
2022-08-25T08:44:40.761Z,25.94
2022-08-25T08:46:45.456Z,25.97
2022-08-25T08:48:50.205Z,25.97
2022-08-25T08:50:55.035Z,25.97
2022-08-25T08:53:00.166Z,25.95
2022-08-25T08:55:10.736Z,25.94
2022-08-25T08:57:15.744Z,25.95
2022-08-25T08:59:22.120Z,25.94
2022-08-25T09:01:34.624Z,25.93
2022-08-25T09:03:39.604Z,25.93
2022-08-25T09:05:46.819Z,25.94
2022-08-25T09:07:54.681Z,25.93
2022-08-25T09:10:10.322Z,25.93
2022-08-25T09:12:17.114Z,25.92
2022-08-25T09:14:22.841Z,25.93
2022-08-25T09:16:35.261Z,25.93
2022-08-25T09:18:40.981Z,25.93
2022-08-25T09:20:56.465Z,25.95
2022-08-25T09:23:03.454Z,25.95
2022-08-25T09:25:08.901Z,25.94
2022-08-25T09:27:13.610Z,25.93
2022-08-25T09:29:18.636Z,25.93
2022-08-25T09:31:26.417Z,25.93
2022-08-25T09:33:35.726Z,25.95
2022-08-25T09:35:40.399Z,25.95
2022-08-25T09:37:45.118Z,25.96
2022-08-25T09:39:51.082Z,25.98
2022-08-25T09:41:55.991Z,25.99
2022-08-25T09:44:02.695Z,25.96
2022-08-25T09:46:09.849Z,25.95
2022-08-25T09:48:14.668Z,25.94
2022-08-25T09:50:19.395Z,25.92
2022-08-25T09:52:25.195Z,25.9
2022-08-25T09:54:44.110Z,25.9
2022-08-25T09:56:51.385Z,25.91
2022-08-25T09:58:58.189Z,25.91
2022-08-25T10:01:18.115Z,25.93
2022-08-25T10:03:26.139Z,25.91
2022-08-25T10:05:39.160Z,25.94
2022-08-25T10:07:43.780Z,25.98
2022-08-25T10:09:55.463Z,25.99
2022-08-25T10:12:00.092Z,25.99
2022-08-25T10:14:06.040Z,25.97
2022-08-25T10:16:13.726Z,25.96
2022-08-25T10:18:32.258Z,25.97
2022-08-25T10:20:36.908Z,25.95
2022-08-25T10:22:50.274Z,25.94
2022-08-25T10:24:55.156Z,25.96
2022-08-25T10:27:00.806Z,25.99
2022-08-25T10:29:05.528Z,25.98
2022-08-25T10:31:12.662Z,25.99
2022-08-25T10:33:17.847Z,25.98
2022-08-25T10:35:23.180Z,25.99
2022-08-25T10:37:32.781Z,25.99
2022-08-25T10:39:40.453Z,26.02
2022-08-25T10:41:45.753Z,26.02
2022-08-25T10:43:53.757Z,26.03
2022-08-25T10:46:02.192Z,26.05
2022-08-25T10:48:07.614Z,26.07
2022-08-25T10:50:12.859Z,26.09
2022-08-25T10:52:17.458Z,26.1
2022-08-25T10:54:23.108Z,26.11
2022-08-25T10:56:28.651Z,26.13
2022-08-25T10:58:34.912Z,26.14
2022-08-25T11:00:39.650Z,26.15
2022-08-25T11:02:52.148Z,26.18
2022-08-25T11:04:56.685Z,26.18
2022-08-25T11:07:02.714Z,26.19
2022-08-25T11:09:09.691Z,26.2
2022-08-25T11:11:14.927Z,26.23
2022-08-25T11:13:19.754Z,26.26
2022-08-25T11:15:24.581Z,26.28
2022-08-25T11:17:30.330Z,26.28
2022-08-25T11:19:39.251Z,26.28
2022-08-25T11:21:46.436Z,26.27
2022-08-25T11:23:52.890Z,26.27
2022-08-25T11:25:57.518Z,26.29
2022-08-25T11:28:02.780Z,26.31
2022-08-25T11:30:08.188Z,26.3
2022-08-25T11:32:13.017Z,26.31
2022-08-25T11:34:19.449Z,26.33
2022-08-25T11:36:24.414Z,26.35
2022-08-25T11:38:34.159Z,26.38
2022-08-25T11:40:38.878Z,26.42
2022-08-25T11:42:45.242Z,26.43
2022-08-25T11:44:53.537Z,26.43
2022-08-25T11:46:58.786Z,26.46
2022-08-25T11:49:03.409Z,26.45
2022-08-25T11:51:09.878Z,26.46
2022-08-25T11:53:14.490Z,26.47
2022-08-25T11:55:22.733Z,26.45
2022-08-25T11:57:27.361Z,26.48
2022-08-25T11:59:35.323Z,26.47
2022-08-25T12:01:40.090Z,26.48
2022-08-25T12:03:44.930Z,26.51
2022-08-25T12:05:53.385Z,26.53
2022-08-25T12:07:58.109Z,26.55
2022-08-25T12:10:05.930Z,26.52
2022-08-25T12:12:10.935Z,26.53
2022-08-25T12:14:19.245Z,26.53
2022-08-25T12:16:23.884Z,26.53
2022-08-25T12:18:28.997Z,26.53
2022-08-25T12:20:33.529Z,26.55
2022-08-25T12:22:38.746Z,26.57
2022-08-25T12:24:47.481Z,26.57
2022-08-25T12:26:53.217Z,26.56
2022-08-25T12:28:58.463Z,26.55
2022-08-25T12:31:10.013Z,26.55
2022-08-25T12:33:14.864Z,26.56
2022-08-25T12:35:20.533Z,26.55
2022-08-25T12:37:26.773Z,26.54
2022-08-25T12:39:32.106Z,26.54
2022-08-25T12:41:38.064Z,26.54
2022-08-25T12:43:43.498Z,26.53
2022-08-25T12:45:48.180Z,26.54
2022-08-25T12:47:55.626Z,26.57
2022-08-25T12:50:00.638Z,26.6
2022-08-25T12:52:06.173Z,26.61
2022-08-25T12:54:10.707Z,26.61
2022-08-25T12:56:25.054Z,26.62
2022-08-25T12:58:43.672Z,26.64
2022-08-25T13:01:04.423Z,26.64
2022-08-25T13:03:35.466Z,26.67
2022-08-25T13:05:40.265Z,26.68
2022-08-25T13:07:44.991Z,26.69
2022-08-25T13:09:50.436Z,26.69
2022-08-25T13:11:54.949Z,26.68
2022-08-25T13:14:01.206Z,26.68
2022-08-25T13:16:05.960Z,26.69
2022-08-25T13:18:10.974Z,26.7
2022-08-25T13:20:16.305Z,26.7
2022-08-25T13:22:21.647Z,26.71
2022-08-25T13:24:27.392Z,26.71
2022-08-25T13:26:32.120Z,26.73
2022-08-25T13:28:40.625Z,26.74
2022-08-25T13:30:53.037Z,26.77
2022-08-25T13:32:58.070Z,26.76
2022-08-25T13:35:11.486Z,26.75
2022-08-25T13:37:22.556Z,26.74
2022-08-25T13:39:53.052Z,26.69
2022-08-25T13:42:07.022Z,26.64
2022-08-25T13:44:14.111Z,26.63
2022-08-25T13:46:18.780Z,26.61
2022-08-25T13:48:26.106Z,26.62
2022-08-25T13:50:30.937Z,26.6
2022-08-25T13:52:36.278Z,26.6
2022-08-25T13:54:45.402Z,26.59
2022-08-25T13:56:50.539Z,26.57
2022-08-25T13:58:58.346Z,26.58
2022-08-25T14:01:03.371Z,26.58
2022-08-25T14:03:53.244Z,26.58
2022-08-25T14:06:03.806Z,26.6
2022-08-25T14:08:15.927Z,26.62
2022-08-25T14:10:31.068Z,26.62
2022-08-25T14:12:35.694Z,26.61
2022-08-25T14:14:40.316Z,26.64
2022-08-25T14:16:46.756Z,26.65
2022-08-25T14:18:52.124Z,26.66
2022-08-25T14:21:00.985Z,26.69
2022-08-25T14:23:09.271Z,26.72
2022-08-25T14:25:18.536Z,26.76
2022-08-25T14:27:22.988Z,26.79
2022-08-25T14:29:27.623Z,26.83
2022-08-25T14:31:43.785Z,26.86
2022-08-25T14:33:49.911Z,26.87
2022-08-25T14:35:54.920Z,26.92
2022-08-25T14:37:59.612Z,26.93
2022-08-25T14:40:05.102Z,26.95
2022-08-25T14:42:12.146Z,26.94
2022-08-25T14:44:16.880Z,26.96
2022-08-25T14:46:23.532Z,26.97
2022-08-25T14:48:28.261Z,26.98
2022-08-25T14:50:32.973Z,26.99
2022-08-25T14:52:37.802Z,26.98
2022-08-25T14:54:45.394Z,26.98
2022-08-25T14:56:50.629Z,26.98
2022-08-25T14:58:55.245Z,26.97
2022-08-25T15:01:03.334Z,26.98
2022-08-25T15:03:09.622Z,26.97
2022-08-25T15:05:15.157Z,26.97
2022-08-25T15:07:22.231Z,26.96
2022-08-25T15:09:33.275Z,26.98
2022-08-25T15:11:38.783Z,26.98
2022-08-25T15:13:49.565Z,26.98
2022-08-25T15:15:54.353Z,26.98
2022-08-25T15:18:02.944Z,26.98
2022-08-25T15:20:08.821Z,26.98
2022-08-25T15:22:18.039Z,26.97
2022-08-25T15:24:22.556Z,27
2022-08-25T15:26:28.219Z,26.99
2022-08-25T15:28:35.907Z,26.99
2022-08-25T15:30:45.039Z,27
2022-08-25T15:32:50.369Z,27.05
